createdAt,value
2019-04-26T00:01:36.582Z,71.00
2019-04-26T00:06:40.248Z,71.19
2019-04-26T00:11:51.096Z,71.39
2019-04-26T00:16:58.819Z,71.16
2019-04-26T00:22:02.653Z,71.91
2019-04-26T00:27:06.402Z,71.28
2019-04-26T00:32:10.683Z,71.53
2019-04-26T00:37:15.903Z,71.72
2019-04-26T00:42:20.634Z,72.33
2019-04-26T00:47:26.029Z,71.97
2019-04-26T00:52:29.905Z,74.10
2019-04-26T00:57:33.630Z,74.64
2019-04-26T01:02:38.749Z,75.40
2019-04-26T01:07:43.877Z,74.14
2019-04-26T01:12:47.376Z,74.23
2019-04-26T01:17:50.797Z,73.90
2019-04-26T01:22:57.266Z,75.14
2019-04-26T01:28:01.715Z,74.42
2019-04-26T01:33:05.542Z,77.85
2019-04-26T01:38:11.996Z,77.31
2019-04-26T01:43:26.441Z,77.84
2019-04-26T01:48:46.030Z,78.34
2019-04-26T01:53:52.151Z,78.48
2019-04-26T01:58:55.729Z,77.45
2019-04-26T02:03:59.854Z,77.79
2019-04-26T02:09:05.431Z,78.27
2019-04-26T02:14:09.262Z,77.73
2019-04-26T02:19:12.816Z,77.79
2019-04-26T02:24:20.837Z,77.94
2019-04-26T02:29:27.019Z,78.72
2019-04-26T02:34:36.013Z,77.65
2019-04-26T02:39:41.446Z,78.15
2019-04-26T02:44:49.603Z,79.30
2019-04-26T02:49:56.838Z,78.47
2019-04-26T02:55:03.316Z,79.10
2019-04-26T03:00:41.455Z,79.92
2019-04-26T03:05:46.023Z,80.09
2019-04-26T03:10:52.477Z,80.54
2019-04-26T03:16:16.348Z,79.24
2019-04-26T03:21:51.086Z,79.97
2019-04-26T03:27:12.582Z,80.96
2019-04-26T03:32:33.819Z,80.19
2019-04-26T03:37:50.098Z,79.66
2019-04-26T03:43:13.082Z,80.11
2019-04-26T03:48:31.339Z,81.29
2019-04-26T03:53:39.740Z,80.28
2019-04-26T03:58:47.625Z,80.60
2019-04-26T04:03:53.207Z,80.81
2019-04-26T04:09:08.888Z,80.26
2019-04-26T04:14:33.620Z,80.58
2019-04-26T04:20:07.453Z,80.98
2019-04-26T04:25:19.602Z,80.73
2019-04-26T04:30:32.079Z,83.14
2019-04-26T04:35:41.733Z,82.70
2019-04-26T04:41:15.646Z,84.32
2019-04-26T04:46:49.904Z,83.74
2019-04-26T04:52:19.798Z,83.10
2019-04-26T04:57:32.459Z,83.36
2019-04-26T05:03:04.575Z,82.49
2019-04-26T05:08:27.878Z,83.39
2019-04-26T05:13:37.245Z,82.24
2019-04-26T05:19:03.453Z,83.25
2019-04-26T05:24:10.217Z,83.87
2019-04-26T05:29:52.090Z,82.94
2019-04-26T05:35:15.431Z,81.58
2019-04-26T05:40:51.530Z,82.91
2019-04-26T05:46:16.232Z,82.05
2019-04-26T05:51:43.215Z,81.82
2019-04-26T05:57:09.395Z,82.15
2019-04-26T06:02:46.899Z,81.17
2019-04-26T06:14:08.870Z,81.04
2019-04-26T06:19:22.575Z,81.28
2019-04-26T06:24:49.772Z,80.76
2019-04-26T06:30:15.816Z,80.44
2019-04-26T06:35:22.983Z,79.96
2019-04-26T06:40:53.461Z,79.21
2019-04-26T06:46:23.288Z,79.08
2019-04-26T06:51:39.462Z,78.59
2019-04-26T06:57:23.822Z,79.68
2019-04-26T07:02:57.519Z,78.13
2019-04-26T07:08:36.886Z,77.67
2019-04-26T07:14:15.712Z,78.50
2019-04-26T07:20:04.208Z,77.97
2019-04-26T07:25:27.112Z,78.89
2019-04-26T07:30:42.580Z,79.47
2019-04-26T07:36:13.809Z,78.39
2019-04-26T07:41:30.432Z,80.91
2019-04-26T07:46:42.679Z,79.85
2019-04-26T07:51:55.175Z,78.83
2019-04-26T07:57:10.785Z,79.75
2019-04-26T08:02:21.932Z,78.42
2019-04-26T08:07:31.109Z,80.22
2019-04-26T08:12:37.280Z,80.65
2019-04-26T08:17:48.203Z,81.84
2019-04-26T08:23:37.204Z,81.16
2019-04-26T08:28:24.828Z,83.52
2019-04-26T08:38:48.831Z,84.74
2019-04-26T08:44:08.613Z,85.44
2019-04-26T08:49:31.352Z,86.86
2019-04-26T08:54:39.743Z,86.32
2019-04-26T08:59:49.020Z,87.03
2019-04-26T09:04:57.155Z,89.71
2019-04-26T09:10:10.716Z,87.56
2019-04-26T09:15:17.240Z,87.91
2019-04-26T09:20:28.638Z,90.20
2019-04-26T09:25:40.901Z,91.30
2019-04-26T09:36:12.244Z,92.55
2019-04-26T09:41:15.740Z,90.84
2019-04-26T09:46:23.622Z,94.12
2019-04-26T09:51:27.437Z,91.31
2019-04-26T09:56:30.947Z,91.82
2019-04-26T10:01:34.382Z,95.91
2019-04-26T10:06:37.862Z,88.49
2019-04-26T10:11:43.596Z,89.01
2019-04-26T10:16:52.316Z,83.81
2019-04-26T10:21:56.038Z,89.56
2019-04-26T10:27:03.439Z,86.00
2019-04-26T10:32:06.370Z,89.92
2019-04-26T10:37:09.812Z,87.60
2019-04-26T10:42:13.527Z,85.43
2019-04-26T10:47:17.058Z,87.18
2019-04-26T10:52:34.259Z,86.83
2019-04-26T10:57:41.910Z,85.92
2019-04-26T11:02:46.035Z,84.20
2019-04-26T11:07:49.557Z,82.74
2019-04-26T11:12:53.064Z,85.37
2019-04-26T11:17:56.731Z,85.46
2019-04-26T11:23:00.172Z,83.00
2019-04-26T11:28:05.921Z,83.36
2019-04-26T11:33:11.148Z,82.83
2019-04-26T11:38:14.326Z,84.62
2019-04-26T11:43:21.004Z,85.01
2019-04-26T11:48:25.405Z,81.53
2019-04-26T11:53:33.394Z,81.32
2019-04-26T11:58:36.662Z,83.15
2019-04-26T12:03:41.893Z,82.82
2019-04-26T12:08:49.857Z,79.57
2019-04-26T12:13:55.308Z,80.31
2019-04-26T12:18:58.800Z,79.89
2019-04-26T12:24:02.242Z,81.00
2019-04-26T12:29:06.569Z,78.81
2019-04-26T12:34:09.952Z,79.70
2019-04-26T12:39:15.039Z,78.41
2019-04-26T12:44:18.555Z,80.31
2019-04-26T12:49:24.357Z,78.50
2019-04-26T12:54:27.211Z,80.94
2019-04-26T12:59:43.342Z,80.11
2019-04-26T13:04:36.648Z,78.95
2019-04-26T13:09:42.866Z,78.13
2019-04-26T13:14:54.208Z,77.63
2019-04-26T13:19:57.588Z,78.96
2019-04-26T13:25:02.173Z,78.49
2019-04-26T13:30:10.642Z,77.72
2019-04-26T13:35:13.036Z,77.70
2019-04-26T13:40:16.571Z,76.18
2019-04-26T13:45:37.990Z,77.43
2019-04-26T13:50:43.049Z,75.79
2019-04-26T13:55:46.617Z,75.83
2019-04-26T14:00:50.359Z,76.16
2019-04-26T14:05:53.789Z,74.67
2019-04-26T14:10:57.366Z,74.79
2019-04-26T14:16:00.882Z,76.53
2019-04-26T14:21:06.937Z,76.40
2019-04-26T14:26:14.737Z,75.58
2019-04-26T14:31:18.514Z,75.17
2019-04-26T14:36:26.826Z,74.06
2019-04-26T14:41:28.854Z,74.39
2019-04-26T14:46:32.436Z,74.82
2019-04-26T14:51:35.844Z,72.54
2019-04-26T14:56:51.704Z,74.82
2019-04-26T15:01:48.833Z,76.64
2019-04-26T15:06:58.214Z,75.73
2019-04-26T15:12:01.386Z,74.32
2019-04-26T15:17:04.325Z,73.92
2019-04-26T15:22:10.385Z,74.25
2019-04-26T15:27:13.058Z,74.28
2019-04-26T15:32:16.533Z,73.16
2019-04-26T15:37:24.007Z,72.39
2019-04-26T15:42:29.319Z,71.22
2019-04-26T15:47:52.446Z,73.72
2019-04-26T15:52:56.098Z,72.33
2019-04-26T15:58:02.703Z,72.31
2019-04-26T16:03:07.451Z,72.02
2019-04-26T16:08:09.984Z,70.26
2019-04-26T16:13:21.068Z,70.22
2019-04-26T16:18:19.207Z,69.25
2019-04-26T16:23:24.168Z,68.16
2019-04-26T16:28:31.023Z,68.99
2019-04-26T16:33:36.315Z,68.64
2019-04-26T16:38:40.630Z,66.84
2019-04-26T16:43:52.206Z,66.33
2019-04-26T16:48:49.744Z,63.90
2019-04-26T16:54:06.550Z,63.71
2019-04-26T16:59:02.839Z,63.01
2019-04-26T17:04:11.232Z,62.92
2019-04-26T17:09:14.754Z,62.13
2019-04-26T17:14:18.529Z,66.09
2019-04-26T17:19:22.915Z,65.35
2019-04-26T17:24:33.965Z,69.24
2019-04-26T17:29:37.611Z,69.69
2019-04-26T17:34:41.102Z,71.00
2019-04-26T17:39:47.580Z,72.98
2019-04-26T17:44:49.689Z,73.75
2019-04-26T17:49:53.176Z,75.02
2019-04-26T17:54:56.639Z,74.62
2019-04-26T18:00:07.147Z,75.85
2019-04-26T18:05:07.247Z,77.35
2019-04-26T18:10:10.916Z,78.51
2019-04-26T18:15:19.163Z,78.10
2019-04-26T18:20:25.225Z,79.54
2019-04-26T18:25:28.750Z,79.96
2019-04-26T18:30:32.959Z,79.57
2019-04-26T18:35:36.436Z,80.54
2019-04-26T18:40:57.121Z,83.11
2019-04-26T18:45:46.731Z,80.70
2019-04-26T18:50:50.164Z,80.52
2019-04-26T18:55:54.477Z,80.51
2019-04-26T19:01:01.712Z,80.94
2019-04-26T19:06:05.552Z,82.26
2019-04-26T19:11:11.880Z,83.71
2019-04-26T19:16:33.269Z,84.63
2019-04-26T19:21:40.954Z,83.72
2019-04-26T19:26:50.005Z,86.69
2019-04-26T19:31:52.207Z,85.96
2019-04-26T19:36:56.404Z,85.75
2019-04-26T19:42:02.490Z,85.85
2019-04-26T19:47:13.642Z,87.25
2019-04-26T19:52:26.864Z,87.21
2019-04-26T19:57:33.366Z,87.28
2019-04-26T20:02:39.268Z,87.38
2019-04-26T20:07:42.321Z,88.54
2019-04-26T20:12:45.766Z,89.99
2019-04-26T20:17:52.873Z,89.59
2019-04-26T20:22:59.357Z,88.59
2019-04-26T20:28:03.093Z,88.36
2019-04-26T20:33:06.623Z,89.42
2019-04-26T20:38:11.883Z,88.31
2019-04-26T20:43:25.819Z,89.07
2019-04-26T20:48:21.611Z,88.62
2019-04-26T20:53:25.171Z,88.50
2019-04-26T20:58:30.368Z,88.47
2019-04-26T21:03:41.891Z,89.88
2019-04-26T21:08:39.622Z,90.43
2019-04-26T21:13:43.120Z,89.04
2019-04-26T21:18:46.618Z,89.31
2019-04-26T21:23:51.719Z,89.86
2019-04-26T21:28:56.991Z,90.54
2019-04-26T21:34:07.859Z,92.23
2019-04-26T21:39:26.742Z,94.15
2019-04-26T21:44:30.186Z,92.40
2019-04-26T21:49:35.756Z,93.21
2019-04-26T21:54:38.765Z,93.09
2019-04-26T21:59:44.089Z,93.08
2019-04-26T22:04:47.423Z,93.56
2019-04-26T22:09:52.952Z,94.76
2019-04-26T22:20:28.848Z,94.03
2019-04-26T22:25:36.572Z,94.56
2019-04-26T22:30:39.976Z,94.12
2019-04-26T22:35:43.402Z,97.10
2019-04-26T22:40:48.576Z,96.65
2019-04-26T22:45:53.950Z,96.36
2019-04-26T22:50:58.822Z,95.45
2019-04-26T22:56:04.597Z,93.54
2019-04-26T23:01:07.852Z,94.15
2019-04-26T23:06:12.743Z,96.37
2019-04-26T23:11:16.563Z,94.26
2019-04-26T23:16:33.703Z,94.69
2019-04-26T23:21:44.280Z,94.67
2019-04-26T23:26:46.405Z,96.00
2019-04-26T23:31:49.822Z,95.55
2019-04-26T23:36:54.051Z,94.94
2019-04-26T23:41:57.554Z,93.21
2019-04-26T23:47:02.324Z,93.64
2019-04-26T23:52:06.428Z,95.27
2019-04-26T23:57:09.834Z,93.66
